sensor_id;sensor_type;location;lat;lon;timestamp;P1;durP1;ratioP1;P2;durP2;ratioP2
10721;SDS011;5412;59.450;18.124;2022-12-18T00:01:33;13.73;;;6.97;;
10721;SDS011;5412;59.450;18.124;2022-12-18T00:04:02;14.30;;;7.90;;
10721;SDS011;5412;59.450;18.124;2022-12-18T00:06:34;12.13;;;7.10;;
10721;SDS011;5412;59.450;18.124;2022-12-18T00:09:00;14.77;;;7.77;;
10721;SDS011;5412;59.450;18.124;2022-12-18T00:11:28;12.20;;;7.50;;
10721;SDS011;5412;59.450;18.124;2022-12-18T00:13:56;14.17;;;8.77;;
10721;SDS011;5412;59.450;18.124;2022-12-18T00:16:24;13.40;;;7.50;;
10721;SDS011;5412;59.450;18.124;2022-12-18T00:18:51;14.07;;;7.43;;
10721;SDS011;5412;59.450;18.124;2022-12-18T00:21:19;14.10;;;7.90;;
10721;SDS011;5412;59.450;18.124;2022-12-18T00:23:45;12.03;;;7.33;;
10721;SDS011;5412;59.450;18.124;2022-12-18T00:26:13;12.27;;;7.93;;
10721;SDS011;5412;59.450;18.124;2022-12-18T00:28:42;11.43;;;7.57;;
10721;SDS011;5412;59.450;18.124;2022-12-18T00:31:09;16.53;;;7.90;;
10721;SDS011;5412;59.450;18.124;2022-12-18T00:33:37;14.30;;;8.07;;
10721;SDS011;5412;59.450;18.124;2022-12-18T00:36:07;15.07;;;7.57;;
10721;SDS011;5412;59.450;18.124;2022-12-18T00:38:36;12.53;;;7.90;;
10721;SDS011;5412;59.450;18.124;2022-12-18T00:41:02;12.73;;;7.70;;
10721;SDS011;5412;59.450;18.124;2022-12-18T00:43:29;14.40;;;8.33;;
10721;SDS011;5412;59.450;18.124;2022-12-18T00:45:55;13.83;;;7.80;;
10721;SDS011;5412;59.450;18.124;2022-12-18T00:48:20;13.87;;;7.73;;
10721;SDS011;5412;59.450;18.124;2022-12-18T00:50:49;17.70;;;8.00;;
10721;SDS011;5412;59.450;18.124;2022-12-18T00:53:16;13.07;;;7.43;;
10721;SDS011;5412;59.450;18.124;2022-12-18T00:55:42;13.17;;;7.00;;
10721;SDS011;5412;59.450;18.124;2022-12-18T00:58:08;16.10;;;7.03;;
10721;SDS011;5412;59.450;18.124;2022-12-18T01:00:35;15.03;;;7.77;;
10721;SDS011;5412;59.450;18.124;2022-12-18T01:03:01;9.87;;;6.47;;
10721;SDS011;5412;59.450;18.124;2022-12-18T01:05:27;10.73;;;6.80;;
10721;SDS011;5412;59.450;18.124;2022-12-18T01:07:53;12.07;;;7.30;;
10721;SDS011;5412;59.450;18.124;2022-12-18T01:10:20;13.27;;;7.30;;
10721;SDS011;5412;59.450;18.124;2022-12-18T01:12:45;12.17;;;7.27;;
10721;SDS011;5412;59.450;18.124;2022-12-18T01:15:12;11.53;;;6.63;;
10721;SDS011;5412;59.450;18.124;2022-12-18T01:17:38;11.83;;;7.53;;
10721;SDS011;5412;59.450;18.124;2022-12-18T01:20:04;13.07;;;7.10;;
10721;SDS011;5412;59.450;18.124;2022-12-18T01:22:30;10.70;;;7.47;;
10721;SDS011;5412;59.450;18.124;2022-12-18T01:25:00;9.20;;;6.43;;
10721;SDS011;5412;59.450;18.124;2022-12-18T01:27:25;15.97;;;7.33;;
10721;SDS011;5412;59.450;18.124;2022-12-18T01:29:51;13.30;;;7.17;;
10721;SDS011;5412;59.450;18.124;2022-12-18T01:32:17;13.23;;;7.37;;
10721;SDS011;5412;59.450;18.124;2022-12-18T01:34:42;13.03;;;7.57;;
10721;SDS011;5412;59.450;18.124;2022-12-18T01:37:08;11.20;;;7.47;;
10721;SDS011;5412;59.450;18.124;2022-12-18T01:39:34;12.60;;;6.73;;
10721;SDS011;5412;59.450;18.124;2022-12-18T01:42:01;11.07;;;7.27;;
10721;SDS011;5412;59.450;18.124;2022-12-18T01:44:51;14.43;;;7.93;;
10721;SDS011;5412;59.450;18.124;2022-12-18T01:47:46;10.40;;;6.80;;
10721;SDS011;5412;59.450;18.124;2022-12-18T01:52:56;14.60;;;6.63;;
10721;SDS011;5412;59.450;18.124;2022-12-18T01:55:34;10.97;;;6.77;;
10721;SDS011;5412;59.450;18.124;2022-12-18T01:58:05;9.83;;;6.63;;
10721;SDS011;5412;59.450;18.124;2022-12-18T02:00:31;15.20;;;7.07;;
10721;SDS011;5412;59.450;18.124;2022-12-18T02:02:56;10.00;;;6.23;;
10721;SDS011;5412;59.450;18.124;2022-12-18T02:05:29;13.20;;;7.03;;
10721;SDS011;5412;59.450;18.124;2022-12-18T02:18:55;13.23;;;7.17;;
10721;SDS011;5412;59.450;18.124;2022-12-18T02:27:27;14.00;;;7.07;;
10721;SDS011;5412;59.450;18.124;2022-12-18T02:29:55;11.70;;;6.63;;
10721;SDS011;5412;59.450;18.124;2022-12-18T02:32:25;12.13;;;6.57;;
10721;SDS011;5412;59.450;18.124;2022-12-18T02:34:56;10.57;;;6.83;;
10721;SDS011;5412;59.450;18.124;2022-12-18T02:37:23;13.13;;;7.43;;
10721;SDS011;5412;59.450;18.124;2022-12-18T02:39:51;10.80;;;7.10;;
10721;SDS011;5412;59.450;18.124;2022-12-18T02:42:19;11.53;;;7.20;;
10721;SDS011;5412;59.450;18.124;2022-12-18T02:44:47;11.33;;;6.80;;
10721;SDS011;5412;59.450;18.124;2022-12-18T02:47:15;12.67;;;7.20;;
10721;SDS011;5412;59.450;18.124;2022-12-18T02:55:31;11.43;;;6.97;;
10721;SDS011;5412;59.450;18.124;2022-12-18T02:58:18;10.80;;;6.60;;
10721;SDS011;5412;59.450;18.124;2022-12-18T03:00:53;12.00;;;6.67;;
10721;SDS011;5412;59.450;18.124;2022-12-18T03:03:27;10.03;;;6.40;;
10721;SDS011;5412;59.450;18.124;2022-12-18T03:06:07;8.40;;;6.37;;
10721;SDS011;5412;59.450;18.124;2022-12-18T03:08:38;12.10;;;7.10;;
10721;SDS011;5412;59.450;18.124;2022-12-18T03:11:11;9.33;;;6.10;;
10721;SDS011;5412;59.450;18.124;2022-12-18T03:16:11;11.63;;;6.37;;
10721;SDS011;5412;59.450;18.124;2022-12-18T03:18:51;14.50;;;6.60;;
10721;SDS011;5412;59.450;18.124;2022-12-18T03:21:28;11.53;;;6.77;;
10721;SDS011;5412;59.450;18.124;2022-12-18T03:23:59;10.37;;;6.73;;
10721;SDS011;5412;59.450;18.124;2022-12-18T03:26:26;10.17;;;6.23;;
10721;SDS011;5412;59.450;18.124;2022-12-18T03:28:56;16.07;;;6.90;;
10721;SDS011;5412;59.450;18.124;2022-12-18T03:31:27;10.37;;;6.60;;
10721;SDS011;5412;59.450;18.124;2022-12-18T03:33:56;14.77;;;7.07;;
10721;SDS011;5412;59.450;18.124;2022-12-18T03:36:24;12.87;;;6.60;;
10721;SDS011;5412;59.450;18.124;2022-12-18T03:38:51;9.83;;;6.70;;
10721;SDS011;5412;59.450;18.124;2022-12-18T03:47:14;10.60;;;6.73;;
10721;SDS011;5412;59.450;18.124;2022-12-18T03:52:23;9.57;;;6.53;;
10721;SDS011;5412;59.450;18.124;2022-12-18T03:55:14;7.77;;;5.60;;
10721;SDS011;5412;59.450;18.124;2022-12-18T03:57:40;10.90;;;7.13;;
10721;SDS011;5412;59.450;18.124;2022-12-18T04:00:12;10.90;;;6.50;;
10721;SDS011;5412;59.450;18.124;2022-12-18T04:02:43;11.17;;;6.40;;
10721;SDS011;5412;59.450;18.124;2022-12-18T04:05:20;10.33;;;5.83;;
10721;SDS011;5412;59.450;18.124;2022-12-18T04:07:48;9.40;;;6.40;;
10721;SDS011;5412;59.450;18.124;2022-12-18T04:10:16;12.57;;;5.67;;
10721;SDS011;5412;59.450;18.124;2022-12-18T04:12:43;8.47;;;5.97;;
10721;SDS011;5412;59.450;18.124;2022-12-18T04:15:09;8.70;;;5.73;;
10721;SDS011;5412;59.450;18.124;2022-12-18T04:17:36;11.30;;;7.30;;
10721;SDS011;5412;59.450;18.124;2022-12-18T04:20:02;10.50;;;6.27;;
10721;SDS011;5412;59.450;18.124;2022-12-18T04:22:28;10.97;;;6.37;;
10721;SDS011;5412;59.450;18.124;2022-12-18T04:24:54;9.73;;;5.67;;
10721;SDS011;5412;59.450;18.124;2022-12-18T04:27:20;12.03;;;6.67;;
10721;SDS011;5412;59.450;18.124;2022-12-18T04:29:46;11.33;;;6.03;;
10721;SDS011;5412;59.450;18.124;2022-12-18T04:32:11;11.33;;;6.00;;
10721;SDS011;5412;59.450;18.124;2022-12-18T04:34:37;9.67;;;6.20;;
10721;SDS011;5412;59.450;18.124;2022-12-18T04:37:03;10.03;;;6.30;;
10721;SDS011;5412;59.450;18.124;2022-12-18T04:39:29;7.83;;;5.90;;
10721;SDS011;5412;59.450;18.124;2022-12-18T04:41:55;10.53;;;6.83;;
10721;SDS011;5412;59.450;18.124;2022-12-18T04:44:20;12.17;;;6.93;;
10721;SDS011;5412;59.450;18.124;2022-12-18T04:46:46;11.07;;;6.00;;
10721;SDS011;5412;59.450;18.124;2022-12-18T04:49:12;11.93;;;6.23;;
10721;SDS011;5412;59.450;18.124;2022-12-18T04:51:38;9.17;;;6.17;;
10721;SDS011;5412;59.450;18.124;2022-12-18T04:54:03;10.50;;;6.23;;
10721;SDS011;5412;59.450;18.124;2022-12-18T04:56:30;7.97;;;5.57;;
10721;SDS011;5412;59.450;18.124;2022-12-18T04:58:57;10.37;;;6.10;;
10721;SDS011;5412;59.450;18.124;2022-12-18T05:01:22;8.13;;;6.00;;
10721;SDS011;5412;59.450;18.124;2022-12-18T05:03:48;11.47;;;6.20;;
10721;SDS011;5412;59.450;18.124;2022-12-18T05:06:15;11.63;;;6.83;;
10721;SDS011;5412;59.450;18.124;2022-12-18T05:08:41;10.63;;;6.47;;
10721;SDS011;5412;59.450;18.124;2022-12-18T05:11:11;10.20;;;6.53;;
10721;SDS011;5412;59.450;18.124;2022-12-18T05:13:42;10.03;;;6.17;;
10721;SDS011;5412;59.450;18.124;2022-12-18T05:16:09;9.27;;;5.67;;
10721;SDS011;5412;59.450;18.124;2022-12-18T05:18:35;10.23;;;6.07;;
10721;SDS011;5412;59.450;18.124;2022-12-18T05:21:01;7.70;;;5.17;;
10721;SDS011;5412;59.450;18.124;2022-12-18T05:23:27;12.13;;;6.33;;
10721;SDS011;5412;59.450;18.124;2022-12-18T05:25:54;11.23;;;5.80;;
10721;SDS011;5412;59.450;18.124;2022-12-18T05:28:21;8.67;;;5.97;;
10721;SDS011;5412;59.450;18.124;2022-12-18T05:30:49;9.83;;;5.97;;
10721;SDS011;5412;59.450;18.124;2022-12-18T05:33:16;8.47;;;6.03;;
10721;SDS011;5412;59.450;18.124;2022-12-18T05:35:43;10.30;;;6.20;;
10721;SDS011;5412;59.450;18.124;2022-12-18T05:38:09;12.97;;;5.90;;
10721;SDS011;5412;59.450;18.124;2022-12-18T05:40:35;8.93;;;6.07;;
10721;SDS011;5412;59.450;18.124;2022-12-18T05:43:01;8.80;;;5.70;;
10721;SDS011;5412;59.450;18.124;2022-12-18T05:45:27;10.57;;;6.57;;
10721;SDS011;5412;59.450;18.124;2022-12-18T05:47:53;11.03;;;6.53;;
10721;SDS011;5412;59.450;18.124;2022-12-18T05:50:18;11.57;;;5.87;;
10721;SDS011;5412;59.450;18.124;2022-12-18T05:52:44;12.37;;;6.23;;
10721;SDS011;5412;59.450;18.124;2022-12-18T05:55:10;9.37;;;5.60;;
10721;SDS011;5412;59.450;18.124;2022-12-18T05:57:36;8.70;;;6.07;;
10721;SDS011;5412;59.450;18.124;2022-12-18T06:00:02;11.83;;;6.27;;
10721;SDS011;5412;59.450;18.124;2022-12-18T06:02:28;10.40;;;6.30;;
10721;SDS011;5412;59.450;18.124;2022-12-18T06:04:54;9.67;;;5.30;;
10721;SDS011;5412;59.450;18.124;2022-12-18T06:07:20;10.23;;;5.70;;
10721;SDS011;5412;59.450;18.124;2022-12-18T06:09:46;11.67;;;6.30;;
10721;SDS011;5412;59.450;18.124;2022-12-18T06:12:11;10.13;;;5.93;;
10721;SDS011;5412;59.450;18.124;2022-12-18T06:14:37;9.60;;;6.17;;
10721;SDS011;5412;59.450;18.124;2022-12-18T06:17:03;10.70;;;5.90;;
10721;SDS011;5412;59.450;18.124;2022-12-18T06:19:28;9.63;;;5.93;;
10721;SDS011;5412;59.450;18.124;2022-12-18T06:21:54;7.37;;;5.00;;
10721;SDS011;5412;59.450;18.124;2022-12-18T06:24:22;10.83;;;6.23;;
10721;SDS011;5412;59.450;18.124;2022-12-18T06:26:48;11.20;;;6.10;;
10721;SDS011;5412;59.450;18.124;2022-12-18T06:29:14;10.90;;;6.57;;
10721;SDS011;5412;59.450;18.124;2022-12-18T06:31:39;9.80;;;5.93;;
10721;SDS011;5412;59.450;18.124;2022-12-18T06:34:05;10.47;;;6.40;;
10721;SDS011;5412;59.450;18.124;2022-12-18T06:36:31;10.73;;;6.50;;
10721;SDS011;5412;59.450;18.124;2022-12-18T06:38:57;8.30;;;5.87;;
10721;SDS011;5412;59.450;18.124;2022-12-18T06:41:23;10.90;;;6.53;;
10721;SDS011;5412;59.450;18.124;2022-12-18T06:43:48;8.80;;;5.77;;
10721;SDS011;5412;59.450;18.124;2022-12-18T06:46:14;10.23;;;6.47;;
10721;SDS011;5412;59.450;18.124;2022-12-18T06:48:40;9.37;;;5.53;;
10721;SDS011;5412;59.450;18.124;2022-12-18T06:51:06;9.87;;;6.20;;
10721;SDS011;5412;59.450;18.124;2022-12-18T06:53:32;9.07;;;5.57;;
10721;SDS011;5412;59.450;18.124;2022-12-18T06:56:05;11.90;;;6.30;;
10721;SDS011;5412;59.450;18.124;2022-12-18T06:58:32;9.50;;;6.10;;
10721;SDS011;5412;59.450;18.124;2022-12-18T07:01:01;8.77;;;5.17;;
10721;SDS011;5412;59.450;18.124;2022-12-18T07:03:29;11.07;;;6.07;;
10721;SDS011;5412;59.450;18.124;2022-12-18T07:05:54;11.03;;;5.87;;
10721;SDS011;5412;59.450;18.124;2022-12-18T07:08:20;10.67;;;5.97;;
10721;SDS011;5412;59.450;18.124;2022-12-18T07:10:46;10.77;;;5.47;;
10721;SDS011;5412;59.450;18.124;2022-12-18T07:13:14;9.10;;;5.60;;
10721;SDS011;5412;59.450;18.124;2022-12-18T07:15:40;8.00;;;5.57;;
10721;SDS011;5412;59.450;18.124;2022-12-18T07:18:06;11.10;;;5.83;;
10721;SDS011;5412;59.450;18.124;2022-12-18T07:20:32;10.20;;;5.43;;
10721;SDS011;5412;59.450;18.124;2022-12-18T07:22:57;11.43;;;6.70;;
10721;SDS011;5412;59.450;18.124;2022-12-18T07:25:23;10.97;;;6.23;;
10721;SDS011;5412;59.450;18.124;2022-12-18T07:27:49;9.20;;;6.27;;
10721;SDS011;5412;59.450;18.124;2022-12-18T07:30:15;8.97;;;5.67;;
10721;SDS011;5412;59.450;18.124;2022-12-18T07:32:40;10.57;;;6.60;;
10721;SDS011;5412;59.450;18.124;2022-12-18T07:35:06;9.80;;;6.20;;
10721;SDS011;5412;59.450;18.124;2022-12-18T07:37:32;9.67;;;6.03;;
10721;SDS011;5412;59.450;18.124;2022-12-18T07:39:58;8.47;;;5.43;;
10721;SDS011;5412;59.450;18.124;2022-12-18T07:42:23;12.03;;;7.00;;
10721;SDS011;5412;59.450;18.124;2022-12-18T07:44:58;13.93;;;6.37;;
10721;SDS011;5412;59.450;18.124;2022-12-18T07:47:25;10.10;;;6.70;;
10721;SDS011;5412;59.450;18.124;2022-12-18T07:49:50;12.17;;;6.50;;
10721;SDS011;5412;59.450;18.124;2022-12-18T07:52:16;11.97;;;7.10;;
10721;SDS011;5412;59.450;18.124;2022-12-18T07:54:42;11.13;;;6.90;;
10721;SDS011;5412;59.450;18.124;2022-12-18T07:57:08;11.50;;;6.73;;
10721;SDS011;5412;59.450;18.124;2022-12-18T07:59:34;10.47;;;6.33;;
10721;SDS011;5412;59.450;18.124;2022-12-18T08:02:00;12.17;;;7.00;;
10721;SDS011;5412;59.450;18.124;2022-12-18T08:04:26;10.87;;;6.50;;
10721;SDS011;5412;59.450;18.124;2022-12-18T08:06:52;10.43;;;6.17;;
10721;SDS011;5412;59.450;18.124;2022-12-18T08:09:17;13.73;;;6.87;;
10721;SDS011;5412;59.450;18.124;2022-12-18T08:11:43;15.17;;;6.93;;
10721;SDS011;5412;59.450;18.124;2022-12-18T08:14:09;10.87;;;6.67;;
10721;SDS011;5412;59.450;18.124;2022-12-18T08:16:35;12.37;;;7.47;;
10721;SDS011;5412;59.450;18.124;2022-12-18T08:19:01;12.17;;;6.43;;
10721;SDS011;5412;59.450;18.124;2022-12-18T08:21:28;16.00;;;7.10;;
10721;SDS011;5412;59.450;18.124;2022-12-18T08:23:56;10.10;;;6.63;;
10721;SDS011;5412;59.450;18.124;2022-12-18T08:26:26;11.13;;;6.80;;
10721;SDS011;5412;59.450;18.124;2022-12-18T08:28:54;11.43;;;6.80;;
10721;SDS011;5412;59.450;18.124;2022-12-18T08:31:21;11.33;;;6.93;;
10721;SDS011;5412;59.450;18.124;2022-12-18T08:33:48;11.30;;;7.40;;
10721;SDS011;5412;59.450;18.124;2022-12-18T08:36:15;11.13;;;7.40;;
10721;SDS011;5412;59.450;18.124;2022-12-18T08:38:41;11.90;;;7.57;;
10721;SDS011;5412;59.450;18.124;2022-12-18T08:41:11;13.47;;;7.43;;
10721;SDS011;5412;59.450;18.124;2022-12-18T08:43:38;10.37;;;6.57;;
10721;SDS011;5412;59.450;18.124;2022-12-18T08:46:23;12.57;;;6.80;;
10721;SDS011;5412;59.450;18.124;2022-12-18T08:48:51;10.93;;;7.33;;
10721;SDS011;5412;59.450;18.124;2022-12-18T08:51:18;12.77;;;7.10;;
10721;SDS011;5412;59.450;18.124;2022-12-18T08:53:44;11.27;;;7.33;;
10721;SDS011;5412;59.450;18.124;2022-12-18T08:56:12;10.70;;;7.00;;
10721;SDS011;5412;59.450;18.124;2022-12-18T08:58:38;15.30;;;7.80;;
10721;SDS011;5412;59.450;18.124;2022-12-18T09:01:06;14.43;;;7.93;;
10721;SDS011;5412;59.450;18.124;2022-12-18T09:03:34;13.33;;;7.53;;
10721;SDS011;5412;59.450;18.124;2022-12-18T09:06:00;11.43;;;7.10;;
10721;SDS011;5412;59.450;18.124;2022-12-18T09:08:26;10.87;;;6.87;;
10721;SDS011;5412;59.450;18.124;2022-12-18T09:10:52;11.13;;;7.57;;
10721;SDS011;5412;59.450;18.124;2022-12-18T09:13:18;11.77;;;6.90;;
10721;SDS011;5412;59.450;18.124;2022-12-18T09:15:48;15.70;;;8.07;;
10721;SDS011;5412;59.450;18.124;2022-12-18T09:18:16;12.40;;;7.53;;
10721;SDS011;5412;59.450;18.124;2022-12-18T09:20:43;15.07;;;7.50;;
10721;SDS011;5412;59.450;18.124;2022-12-18T09:23:09;12.33;;;7.20;;
10721;SDS011;5412;59.450;18.124;2022-12-18T09:25:36;11.70;;;7.47;;
10721;SDS011;5412;59.450;18.124;2022-12-18T09:28:04;9.60;;;6.63;;
10721;SDS011;5412;59.450;18.124;2022-12-18T09:30:41;9.80;;;6.90;;
10721;SDS011;5412;59.450;18.124;2022-12-18T09:33:08;11.40;;;6.63;;
10721;SDS011;5412;59.450;18.124;2022-12-18T09:35:37;12.53;;;6.60;;
10721;SDS011;5412;59.450;18.124;2022-12-18T09:38:03;12.27;;;7.07;;
10721;SDS011;5412;59.450;18.124;2022-12-18T09:40:32;9.97;;;6.67;;
10721;SDS011;5412;59.450;18.124;2022-12-18T09:45:55;10.60;;;6.17;;
10721;SDS011;5412;59.450;18.124;2022-12-18T09:48:26;11.20;;;6.50;;
10721;SDS011;5412;59.450;18.124;2022-12-18T09:50:59;10.97;;;6.63;;
10721;SDS011;5412;59.450;18.124;2022-12-18T09:53:30;11.60;;;6.63;;
10721;SDS011;5412;59.450;18.124;2022-12-18T09:56:00;9.70;;;6.73;;
10721;SDS011;5412;59.450;18.124;2022-12-18T09:58:33;11.00;;;6.67;;
10721;SDS011;5412;59.450;18.124;2022-12-18T10:01:00;12.93;;;7.10;;
10721;SDS011;5412;59.450;18.124;2022-12-18T10:03:26;10.47;;;5.97;;
10721;SDS011;5412;59.450;18.124;2022-12-18T10:14:23;10.80;;;6.27;;
10721;SDS011;5412;59.450;18.124;2022-12-18T10:20:03;12.27;;;6.67;;
10721;SDS011;5412;59.450;18.124;2022-12-18T10:27:55;10.23;;;6.93;;
10721;SDS011;5412;59.450;18.124;2022-12-18T10:30:25;13.57;;;7.50;;
10721;SDS011;5412;59.450;18.124;2022-12-18T10:32:51;10.73;;;7.23;;
10721;SDS011;5412;59.450;18.124;2022-12-18T10:35:22;11.77;;;7.17;;
10721;SDS011;5412;59.450;18.124;2022-12-18T10:37:59;9.80;;;6.77;;
10721;SDS011;5412;59.450;18.124;2022-12-18T10:40:28;11.47;;;6.30;;
10721;SDS011;5412;59.450;18.124;2022-12-18T10:43:13;14.87;;;6.43;;
10721;SDS011;5412;59.450;18.124;2022-12-18T10:45:40;11.97;;;7.07;;
10721;SDS011;5412;59.450;18.124;2022-12-18T10:48:19;10.40;;;6.37;;
10721;SDS011;5412;59.450;18.124;2022-12-18T10:50:49;12.20;;;6.67;;
10721;SDS011;5412;59.450;18.124;2022-12-18T10:53:24;14.13;;;7.47;;
10721;SDS011;5412;59.450;18.124;2022-12-18T10:55:52;10.10;;;6.40;;
10721;SDS011;5412;59.450;18.124;2022-12-18T11:03:43;16.40;;;8.23;;
10721;SDS011;5412;59.450;18.124;2022-12-18T11:06:14;10.53;;;6.60;;
10721;SDS011;5412;59.450;18.124;2022-12-18T11:08:43;8.50;;;6.23;;
10721;SDS011;5412;59.450;18.124;2022-12-18T11:11:22;12.57;;;6.27;;
10721;SDS011;5412;59.450;18.124;2022-12-18T11:16:34;10.63;;;6.30;;
10721;SDS011;5412;59.450;18.124;2022-12-18T11:21:49;11.67;;;7.20;;
10721;SDS011;5412;59.450;18.124;2022-12-18T11:24:32;14.23;;;6.97;;
10721;SDS011;5412;59.450;18.124;2022-12-18T11:27:03;16.50;;;7.03;;
10721;SDS011;5412;59.450;18.124;2022-12-18T11:29:34;14.77;;;8.10;;
10721;SDS011;5412;59.450;18.124;2022-12-18T11:32:47;13.50;;;6.87;;
10721;SDS011;5412;59.450;18.124;2022-12-18T11:34:57;10.73;;;6.70;;
10721;SDS011;5412;59.450;18.124;2022-12-18T11:37:29;11.77;;;6.67;;
10721;SDS011;5412;59.450;18.124;2022-12-18T11:39:57;9.53;;;6.23;;
10721;SDS011;5412;59.450;18.124;2022-12-18T11:42:34;12.57;;;6.57;;
10721;SDS011;5412;59.450;18.124;2022-12-18T11:47:57;12.03;;;6.80;;
10721;SDS011;5412;59.450;18.124;2022-12-18T11:53:02;8.57;;;6.30;;
10721;SDS011;5412;59.450;18.124;2022-12-18T12:00:40;10.47;;;6.67;;
10721;SDS011;5412;59.450;18.124;2022-12-18T12:03:24;10.07;;;6.23;;
10721;SDS011;5412;59.450;18.124;2022-12-18T12:06:10;9.87;;;6.13;;
10721;SDS011;5412;59.450;18.124;2022-12-18T12:15:23;8.17;;;5.53;;
10721;SDS011;5412;59.450;18.124;2022-12-18T12:21:02;8.97;;;5.97;;
10721;SDS011;5412;59.450;18.124;2022-12-18T12:24:14;11.13;;;5.87;;
10721;SDS011;5412;59.450;18.124;2022-12-18T12:38:11;11.00;;;5.77;;
10721;SDS011;5412;59.450;18.124;2022-12-18T12:41:05;10.43;;;6.03;;
10721;SDS011;5412;59.450;18.124;2022-12-18T12:43:55;10.13;;;5.80;;
10721;SDS011;5412;59.450;18.124;2022-12-18T12:46:24;8.47;;;5.67;;
10721;SDS011;5412;59.450;18.124;2022-12-18T12:49:03;9.17;;;5.80;;
10721;SDS011;5412;59.450;18.124;2022-12-18T12:51:41;12.83;;;5.50;;
10721;SDS011;5412;59.450;18.124;2022-12-18T12:54:21;10.73;;;5.50;;
10721;SDS011;5412;59.450;18.124;2022-12-18T13:00:05;11.57;;;6.00;;
10721;SDS011;5412;59.450;18.124;2022-12-18T13:05:02;7.60;;;5.10;;
10721;SDS011;5412;59.450;18.124;2022-12-18T13:07:41;9.37;;;4.70;;
10721;SDS011;5412;59.450;18.124;2022-12-18T13:12:54;7.57;;;5.33;;
10721;SDS011;5412;59.450;18.124;2022-12-18T13:15:41;8.03;;;4.67;;
10721;SDS011;5412;59.450;18.124;2022-12-18T13:31:13;9.30;;;4.70;;
10721;SDS011;5412;59.450;18.124;2022-12-18T13:34:16;7.63;;;4.50;;
10721;SDS011;5412;59.450;18.124;2022-12-18T13:36:44;7.47;;;4.37;;
10721;SDS011;5412;59.450;18.124;2022-12-18T13:41:43;9.70;;;4.90;;
10721;SDS011;5412;59.450;18.124;2022-12-18T13:44:27;6.13;;;3.83;;
10721;SDS011;5412;59.450;18.124;2022-12-18T13:47:00;6.13;;;3.93;;
10721;SDS011;5412;59.450;18.124;2022-12-18T13:49:38;8.93;;;4.50;;
10721;SDS011;5412;59.450;18.124;2022-12-18T13:52:16;6.50;;;4.13;;
10721;SDS011;5412;59.450;18.124;2022-12-18T13:54:56;7.13;;;4.00;;
10721;SDS011;5412;59.450;18.124;2022-12-18T13:57:33;6.57;;;3.90;;
10721;SDS011;5412;59.450;18.124;2022-12-18T14:02:47;5.60;;;4.27;;
10721;SDS011;5412;59.450;18.124;2022-12-18T14:05:29;6.07;;;4.00;;
10721;SDS011;5412;59.450;18.124;2022-12-18T14:08:08;9.93;;;4.13;;
10721;SDS011;5412;59.450;18.124;2022-12-18T14:10:44;6.83;;;3.93;;
10721;SDS011;5412;59.450;18.124;2022-12-18T14:13:15;7.20;;;3.43;;
10721;SDS011;5412;59.450;18.124;2022-12-18T14:15:49;11.53;;;3.93;;
10721;SDS011;5412;59.450;18.124;2022-12-18T14:18:26;6.40;;;4.07;;
10721;SDS011;5412;59.450;18.124;2022-12-18T14:21:25;9.40;;;2.93;;
10721;SDS011;5412;59.450;18.124;2022-12-18T14:24:03;8.47;;;4.07;;
10721;SDS011;5412;59.450;18.124;2022-12-18T14:26:47;8.27;;;3.50;;
10721;SDS011;5412;59.450;18.124;2022-12-18T14:32:08;7.30;;;3.00;;
10721;SDS011;5412;59.450;18.124;2022-12-18T14:34:37;6.67;;;3.47;;
10721;SDS011;5412;59.450;18.124;2022-12-18T14:37:03;9.50;;;3.33;;
10721;SDS011;5412;59.450;18.124;2022-12-18T14:39:29;11.00;;;3.63;;
10721;SDS011;5412;59.450;18.124;2022-12-18T14:41:55;7.83;;;3.87;;
10721;SDS011;5412;59.450;18.124;2022-12-18T14:44:21;6.80;;;3.50;;
10721;SDS011;5412;59.450;18.124;2022-12-18T14:46:48;5.53;;;2.80;;
10721;SDS011;5412;59.450;18.124;2022-12-18T14:51:48;3.70;;;2.87;;
10721;SDS011;5412;59.450;18.124;2022-12-18T14:54:17;9.53;;;3.37;;
10721;SDS011;5412;59.450;18.124;2022-12-18T14:56:51;7.70;;;3.50;;
10721;SDS011;5412;59.450;18.124;2022-12-18T14:59:23;6.63;;;3.53;;
10721;SDS011;5412;59.450;18.124;2022-12-18T15:07:54;8.50;;;3.60;;
10721;SDS011;5412;59.450;18.124;2022-12-18T15:10:22;6.57;;;3.40;;
10721;SDS011;5412;59.450;18.124;2022-12-18T15:18:05;10.27;;;2.73;;
10721;SDS011;5412;59.450;18.124;2022-12-18T15:21:11;9.87;;;3.30;;
10721;SDS011;5412;59.450;18.124;2022-12-18T15:26:09;5.93;;;2.80;;
10721;SDS011;5412;59.450;18.124;2022-12-18T15:33:40;6.60;;;2.70;;
10721;SDS011;5412;59.450;18.124;2022-12-18T15:36:14;7.63;;;3.00;;
10721;SDS011;5412;59.450;18.124;2022-12-18T15:38:43;4.10;;;2.90;;
10721;SDS011;5412;59.450;18.124;2022-12-18T15:41:18;6.97;;;2.60;;
10721;SDS011;5412;59.450;18.124;2022-12-18T15:43:46;5.07;;;2.70;;
10721;SDS011;5412;59.450;18.124;2022-12-18T15:48:48;6.73;;;2.30;;
10721;SDS011;5412;59.450;18.124;2022-12-18T15:51:28;6.23;;;2.30;;
10721;SDS011;5412;59.450;18.124;2022-12-18T15:53:58;6.10;;;2.00;;
10721;SDS011;5412;59.450;18.124;2022-12-18T15:56:25;7.83;;;2.33;;
10721;SDS011;5412;59.450;18.124;2022-12-18T15:59:12;5.50;;;1.93;;
10721;SDS011;5412;59.450;18.124;2022-12-18T16:01:39;5.13;;;2.37;;
10721;SDS011;5412;59.450;18.124;2022-12-18T16:04:06;8.27;;;2.77;;
10721;SDS011;5412;59.450;18.124;2022-12-18T16:06:34;5.67;;;2.33;;
10721;SDS011;5412;59.450;18.124;2022-12-18T16:09:00;5.47;;;2.40;;
10721;SDS011;5412;59.450;18.124;2022-12-18T16:11:29;6.57;;;2.37;;
10721;SDS011;5412;59.450;18.124;2022-12-18T16:14:08;8.80;;;2.80;;
10721;SDS011;5412;59.450;18.124;2022-12-18T16:16:45;9.17;;;2.27;;
10721;SDS011;5412;59.450;18.124;2022-12-18T16:19:12;5.10;;;2.17;;
10721;SDS011;5412;59.450;18.124;2022-12-18T16:21:38;3.97;;;2.20;;
10721;SDS011;5412;59.450;18.124;2022-12-18T16:24:04;6.87;;;2.10;;
10721;SDS011;5412;59.450;18.124;2022-12-18T16:26:30;3.97;;;1.63;;
10721;SDS011;5412;59.450;18.124;2022-12-18T16:28:56;10.23;;;2.27;;
10721;SDS011;5412;59.450;18.124;2022-12-18T16:31:21;4.17;;;1.90;;
10721;SDS011;5412;59.450;18.124;2022-12-18T16:33:47;3.83;;;1.80;;
10721;SDS011;5412;59.450;18.124;2022-12-18T16:36:13;6.77;;;2.40;;
10721;SDS011;5412;59.450;18.124;2022-12-18T16:38:39;7.37;;;1.90;;
10721;SDS011;5412;59.450;18.124;2022-12-18T16:41:16;5.20;;;1.60;;
10721;SDS011;5412;59.450;18.124;2022-12-18T16:43:56;5.10;;;1.63;;
10721;SDS011;5412;59.450;18.124;2022-12-18T16:46:22;4.87;;;2.33;;
10721;SDS011;5412;59.450;18.124;2022-12-18T16:48:48;5.87;;;2.00;;
10721;SDS011;5412;59.450;18.124;2022-12-18T16:51:13;3.07;;;1.63;;
10721;SDS011;5412;59.450;18.124;2022-12-18T16:53:39;6.80;;;1.80;;
10721;SDS011;5412;59.450;18.124;2022-12-18T16:56:05;5.30;;;1.87;;
10721;SDS011;5412;59.450;18.124;2022-12-18T16:58:31;5.73;;;1.90;;
10721;SDS011;5412;59.450;18.124;2022-12-18T17:00:57;7.33;;;1.90;;
10721;SDS011;5412;59.450;18.124;2022-12-18T17:03:23;3.90;;;1.50;;
10721;SDS011;5412;59.450;18.124;2022-12-18T17:05:49;4.47;;;2.03;;
10721;SDS011;5412;59.450;18.124;2022-12-18T17:08:16;7.10;;;3.43;;
10721;SDS011;5412;59.450;18.124;2022-12-18T17:10:41;7.50;;;1.90;;
10721;SDS011;5412;59.450;18.124;2022-12-18T17:13:07;5.07;;;2.03;;
10721;SDS011;5412;59.450;18.124;2022-12-18T17:15:36;6.23;;;1.60;;
10721;SDS011;5412;59.450;18.124;2022-12-18T17:18:02;6.30;;;1.53;;
10721;SDS011;5412;59.450;18.124;2022-12-18T17:20:29;4.50;;;1.60;;
10721;SDS011;5412;59.450;18.124;2022-12-18T17:22:55;10.20;;;2.00;;
10721;SDS011;5412;59.450;18.124;2022-12-18T17:25:20;8.30;;;1.97;;
10721;SDS011;5412;59.450;18.124;2022-12-18T17:27:46;7.13;;;2.00;;